RPi & Temperatures at JO21ut

Last graph updates: Saturday 21 April 2018 17:02 CEST

Sunrise: 06:25 & Sunset: 20:46 The Sun is currently visible at an elevation of 30.27 degrees and azimut of 249 and 150370066 Km from the Earth
Moonrise: 10:33 & Moonset: 2:00 Quarter Moon The Moon is 363345 Km from the Earth
Find here more details on MARS.

17:18:49 up 7 days, 4:41, 0 users, load average: 0.55, 0.53, 0.49
Current CPU frequency is: 1000 Mhz
Current GPU temperature: 33.628°C
Current inside temperature is 24.0°C with a humidity of 41.8%
Second inside temperature is 24°C with a pressure of 1016.10 Hpa (29.77 inHg) and an uncorrected altitude of -24.03 m
ds18b20 now showing 24.3°C

All the sensors I use, DHT22 | BMP085 | MPU6050 | BH1750FVI | MMA7455 | HMC5883L | MPL3115A2 | DS1307 | HTU21 | AM2321 | DS3231 | INA219 | LM75A , and it's current readout can be viewed here please be patient as it needs to read all sensors data. The page loads after about 10 seconds. In our forum more details can be found such as the used software/sources. Feel free to add yours also..


Pressure BMP085
Pressure BMP085
Pressure BMP085
Pressure BMP085
PI CPU Temp
Inet Volkel temp
Inside temp BMP085
Humidity BMP085
PI CPU Temp
Inet Volkel temp
Inside temp BMP085
Humidity BMP085
PI CPU Temp
Inet Volkel temp
Inside temp BMP085
Humidity BMP085
PI CPU Temp
Inet Volkel temp
Inside temp BMP085
Humidity BMP085
PI CPU Temp
Inet Volkel temp
Inside temp BMP085
Humidity BMP085
Inside light BH1750FV
Inside light BH1750FV
Inside light BH1750FV
Inside light BH1750FV
Inside light BH1750FV
Inside light BH1750FV
Sunlight hours
 

Sun & Moon height


Wijchen weather

Weer Widget
ScreenSaver yr.no

Sun Moon Earth


EHEH 211455Z AUTO 06006KT 320V080 9999 FEW360 23/09 Q1020 BLU 06007KT CAVOK EHEH 211455Z AUTO 06006KT 320V080 9999 FEW360 23/09 Q1020 BLU 06007KT CAVOK EHEH 211455Z AUTO 06006KT 320V080 9999 FEW360 23/09 Q1020 BLU 06007KT CAVOK

Weather data from Volkel [NL] EHVK


24 minutes ago, at 14:55 UTC, the wind was blowing at a speed of 3.6 meters per second (8.1 miles per hour/7 knots) from East/Northeast (060) in Volkel [EHVK], Netherlands. The temperature was 23 °C (73 °F) with a dewpoint of 9 °C (48 °F), and the pressure was 1,020 hPa (30.12 inHg). The relative humidity was 40.9%. There are no clouds below 1,524 meter (5,000 feet). The visibility was >10 kilometers (>6.2 miles).




View code:

Contact me  |  My Raspberry PI forum